Time;durP1;ratioP1;P1;durP2;ratioP2;P2;SDS_P1;SDS_P2;PMS_P1;PMS_P2;Temp;Humidity;BMP_temperature;BMP_pressure;BME280_temperature;BME280_humidity;BME280_pressure;Samples;Min_cycle;Max_cycle;Signal;HPM_P1;HPM_P2
2021/01/30 00:01:10;;;;;;;31.13;13.25;;;;;;;-5.31;85.15;97750.09;3439021;28;20047;-48
2021/01/30 00:02:51;;;;;;;27.05;11.77;;;;;;;-5.30;85.21;97758.50;3440000;28;20125;-48
2021/01/30 00:04:33;;;;;;;21.63;9.10;;;;;;;-5.30;85.10;97749.28;3439694;28;20081;-48
2021/01/30 00:06:15;;;;;;;20.58;9.77;;;;;;;-5.29;84.96;97755.22;3438462;28;20401;-47
2021/01/30 00:07:57;;;;;;;31.58;11.90;;;;;;;-5.29;85.29;97758.59;3441476;28;20042;-53
2021/01/30 00:09:39;;;;;;;23.92;12.35;;;;;;;-5.26;85.16;97757.00;3438601;28;20057;-53
2021/01/30 00:11:20;;;;;;;23.00;12.35;;;;;;;-5.26;85.04;97762.94;3440454;28;20046;-49
2021/01/30 00:13:02;;;;;;;15.98;7.28;;;;;;;-5.24;84.89;97766.38;3439201;28;20050;-47
2021/01/30 00:14:44;;;;;;;23.95;10.50;;;;;;;-5.20;84.88;97772.44;3437735;28;20046;-54
2021/01/30 00:16:25;;;;;;;29.48;10.93;;;;;;;-5.20;84.82;97772.44;3439712;28;20065;-55
2021/01/30 00:18:08;;;;;;;25.30;11.23;;;;;;;-5.19;84.89;97771.66;3438415;28;20493;-53
2021/01/30 00:19:50;;;;;;;29.58;12.55;;;;;;;-5.19;84.84;97775.03;3440976;28;20046;-53
2021/01/30 00:21:31;;;;;;;24.98;12.43;;;;;;;-5.17;85.24;97785.22;3438009;28;20146;-54
2021/01/30 00:23:13;;;;;;;23.00;12.35;;;;;;;-5.15;85.06;97781.94;3440374;28;20046;-53
2021/01/30 00:24:57;;;;;;;28.27;12.43;;;;;;;-5.13;84.81;97787.94;3437687;28;20150;-54
2021/01/30 00:26:39;;;;;;;27.73;12.38;;;;;;;-5.11;84.79;97785.47;3438187;28;20050;-54
2021/01/30 00:28:20;;;;;;;29.95;12.18;;;;;;;-5.11;85.03;97796.44;3440802;28;20043;-54
2021/01/30 00:30:07;;;;;;;24.83;10.73;;;;;;;-5.10;84.81;97783.03;3438268;28;20100;-55
2021/01/30 00:31:49;;;;;;;27.95;13.00;;;;;;;-5.09;85.11;97786.41;3436757;28;20046;-55
2021/01/30 00:33:31;;;;;;;21.77;9.10;;;;;;;-5.07;84.83;97781.44;3437574;28;20093;-54
2021/01/30 00:35:13;;;;;;;24.27;10.50;;;;;;;-5.08;84.72;97783.09;3439801;28;20092;-54
2021/01/30 00:36:56;;;;;;;28.52;12.35;;;;;;;-5.10;85.14;97788.09;3439414;28;20140;-54
2021/01/30 00:38:37;;;;;;;25.25;10.95;;;;;;;-5.10;84.93;97779.63;3438370;28;20054;-55
2021/01/30 00:40:21;;;;;;;25.10;11.63;;;;;;;-5.11;84.89;97778.75;3440092;28;20443;-53
2021/01/30 00:42:03;;;;;;;25.83;11.15;;;;;;;-5.12;84.95;97787.16;3438407;28;20408;-53
2021/01/30 00:43:44;;;;;;;17.25;9.68;;;;;;;-5.12;84.75;97787.16;3437793;28;20047;-54
2021/01/30 00:45:27;;;;;;;29.58;11.55;;;;;;;-5.14;84.94;97792.91;3438889;28;20192;-51
2021/01/30 00:47:10;;;;;;;21.00;10.50;;;;;;;-5.16;84.88;97792.00;3439570;28;20082;-52
2021/01/30 00:48:52;;;;;;;27.58;11.70;;;;;;;-5.18;85.05;97791.91;3439235;28;20427;-54
2021/01/30 00:50:34;;;;;;;22.65;10.77;;;;;;;-5.20;84.94;97788.47;3437305;28;20116;-53
2021/01/30 00:52:17;;;;;;;19.77;10.00;;;;;;;-5.22;84.73;97797.66;3440697;28;20046;-54
2021/01/30 00:53:59;;;;;;;22.20;11.77;;;;;;;-5.25;84.76;97784.00;3438293;28;20073;-52
2021/01/30 00:55:41;;;;;;;20.75;9.70;;;;;;;-5.29;84.91;97793.13;3439826;28;20057;-53
2021/01/30 00:57:22;;;;;;;27.08;11.85;;;;;;;-5.34;84.94;97792.03;3438478;28;20387;-54
2021/01/30 00:59:04;;;;;;;29.48;12.82;;;;;;;-5.42;85.14;97793.34;3437192;28;20073;-54
2021/01/30 01:00:45;;;;;;;25.40;12.27;;;;;;;-5.45;85.16;97794.06;3436411;28;20049;-52
2021/01/30 01:02:27;;;;;;;34.00;14.30;;;;;;;-5.50;85.07;97798.06;3437372;28;20483;-54
2021/01/30 01:04:09;;;;;;;31.77;14.88;;;;;;;-5.52;85.01;97797.13;3440398;28;20065;-52
2021/01/30 01:05:51;;;;;;;38.22;15.35;;;;;;;-5.59;85.48;97806.06;3437357;28;20519;-50
2021/01/30 01:07:32;;;;;;;30.60;14.98;;;;;;;-5.65;85.49;97800.75;3440274;28;20491;-54
2021/01/30 01:09:16;;;;;;;31.48;12.98;;;;;;;-5.70;85.28;97803.03;3438622;28;20061;-55
2021/01/30 01:10:59;;;;;;;29.23;12.15;;;;;;;-5.74;85.43;97812.91;3438783;28;20046;-54
2021/01/30 01:12:41;;;;;;;22.50;10.10;;;;;;;-5.78;85.53;97806.84;3440067;28;20046;-54
2021/01/30 01:14:24;;;;;;;21.63;9.85;;;;;;;-5.79;85.58;97807.66;3437902;28;20697;-54
2021/01/30 01:16:06;;;;;;;27.08;11.45;;;;;;;-5.82;85.88;97810.03;3438379;28;20120;-52
2021/01/30 01:17:49;;;;;;;21.83;10.68;;;;;;;-5.84;85.96;97813.31;3438164;28;20077;-51
2021/01/30 01:19:30;;;;;;;21.23;10.57;;;;;;;-5.88;85.88;97814.81;3439586;28;20046;-53
2021/01/30 01:21:12;;;;;;;23.13;10.45;;;;;;;-5.91;85.76;97817.19;3438493;28;20050;-53
2021/01/30 01:22:54;;;;;;;20.63;9.75;;;;;;;-5.95;85.69;97811.13;3438191;28;20057;-52
2021/01/30 01:24:35;;;;;;;21.80;10.27;;;;;;;-6.00;85.84;97812.56;3440279;28;20077;-51
2021/01/30 01:26:19;;;;;;;13.38;6.75;;;;;;;-6.02;85.81;97821.72;3437730;28;20501;-51
2021/01/30 01:28:01;;;;;;;18.75;8.68;;;;;;;-6.05;85.92;97827.47;3440367;28;20058;-55
2021/01/30 01:29:42;;;;;;;19.60;9.30;;;;;;;-6.08;85.87;97822.28;3437675;28;20153;-54
2021/01/30 01:31:24;;;;;;;25.67;11.68;;;;;;;-6.12;86.32;97815.34;3433014;28;20050;-53
2021/01/30 01:33:06;;;;;;;20.10;9.52;;;;;;;-6.16;86.36;97816.00;3438790;28;20050;-53
2021/01/30 01:34:48;;;;;;;24.90;11.70;;;;;;;-6.19;86.47;97815.00;3438040;28;20053;-52
2021/01/30 01:36:29;;;;;;;21.67;9.95;;;;;;;-6.22;86.44;97820.72;3439962;28;20078;-54
2021/01/30 01:38:11;;;;;;;22.45;9.98;;;;;;;-6.27;86.55;97822.16;3440028;28;20408;-53
2021/01/30 01:39:52;;;;;;;22.00;10.20;;;;;;;-6.30;86.38;97830.47;3442796;28;20503;-54
2021/01/30 01:41:34;;;;;;;23.02;10.30;;;;;;;-6.34;86.24;97820.13;3439137;28;20491;-54
2021/01/30 01:43:18;;;;;;;23.42;10.57;;;;;;;-6.39;86.49;97822.44;3441862;28;20047;-53
2021/01/30 01:45:00;;;;;;;22.30;10.55;;;;;;;-6.42;86.71;97822.28;3440891;28;20050;-55
2021/01/30 01:46:42;;;;;;;19.02;8.90;;;;;;;-6.45;86.55;97819.59;3441356;28;20058;-52
2021/01/30 01:48:28;;;;;;;29.15;11.13;;;;;;;-6.50;86.64;97823.53;3441304;28;20438;-53
2021/01/30 01:50:30;;;;;;;20.67;8.93;;;;;;;-6.53;86.75;97828.47;3440160;28;20046;-52
2021/01/30 01:52:23;;;;;;;20.17;10.57;;;;;;;-6.60;86.62;97827.28;3440249;28;20132;-55
2021/01/30 01:54:08;;;;;;;22.77;9.40;;;;;;;-6.64;86.77;97830.41;3441044;28;20058;-54
2021/01/30 01:55:54;;;;;;;24.00;9.65;;;;;;;-6.67;86.74;97828.63;3439998;28;20297;-54
2021/01/30 01:57:42;;;;;;;23.35;11.15;;;;;;;-6.71;86.85;97821.69;3442273;28;20062;-51
2021/01/30 01:59:24;;;;;;;23.42;11.38;;;;;;;-6.75;87.12;97816.41;3438204;28;20057;-48
2021/01/30 02:01:06;;;;;;;24.35;11.20;;;;;;;-6.78;87.14;97824.69;3441719;28;20124;-50
2021/01/30 02:02:49;;;;;;;25.02;10.45;;;;;;;-6.81;86.85;97817.81;3440646;28;20042;-47
2021/01/30 02:04:32;;;;;;;22.48;8.98;;;;;;;-6.84;87.13;97815.13;3441167;28;20351;-49
2021/01/30 02:06:14;;;;;;;27.88;10.02;;;;;;;-6.89;87.07;97821.63;3441563;28;20050;-48
2021/01/30 02:07:59;;;;;;;24.17;9.88;;;;;;;-6.93;86.90;97812.16;3439979;28;20050;-52
2021/01/30 02:09:41;;;;;;;20.95;8.73;;;;;;;-6.93;86.96;97813.81;3442371;28;20057;-51
2021/01/30 02:11:22;;;;;;;29.63;11.43;;;;;;;-6.97;87.03;97810.28;3439729;28;20081;-48
2021/01/30 02:13:09;;;;;;;21.60;9.57;;;;;;;-7.00;87.10;97800.88;3439669;28;20058;-49
2021/01/30 02:14:54;;;;;;;20.92;9.57;;;;;;;-7.02;87.03;97802.47;3440981;28;20054;-48
2021/01/30 02:16:43;;;;;;;21.95;10.40;;;;;;;-7.05;87.01;97801.44;3440671;28;20503;-48
2021/01/30 02:18:35;;;;;;;27.75;10.05;;;;;;;-7.09;87.30;97813.00;3443220;28;20060;-49
2021/01/30 02:20:53;;;;;;;23.33;11.07;;;;;;;-7.14;87.31;97808.53;3439863;28;20050;-50
2021/01/30 02:23:18;;;;;;;23.85;11.00;;;;;;;-7.20;87.49;97799.84;3420731;28;20054;-49
2021/01/30 02:25:42;;;;;;;23.48;10.23;;;;;;;-7.21;87.45;97787.16;3442386;28;20050;-48
2021/01/30 02:27:57;;;;;;;19.23;9.20;;;;;;;-7.24;87.73;97787.00;3429439;28;20555;-51
2021/01/30 02:30:12;;;;;;;24.48;10.43;;;;;;;-7.26;87.44;97796.13;3437671;28;20078;-49
2021/01/30 02:32:08;;;;;;;24.02;11.00;;;;;;;-7.29;87.33;97793.47;3440605;28;20050;-49
2021/01/30 02:34:22;;;;;;;27.25;10.40;;;;;;;-7.31;87.54;97787.47;3442182;28;20534;-53
2021/01/30 02:36:29;;;;;;;22.83;9.63;;;;;;;-7.31;87.57;97795.03;3429634;28;20140;-51
2021/01/30 02:38:17;;;;;;;31.60;13.00;;;;;;;-7.34;87.52;97800.78;3439753;28;20055;-52
2021/01/30 02:40:05;;;;;;;25.38;11.50;;;;;;;-7.38;87.42;97794.72;3441263;28;20049;-50
2021/01/30 02:41:51;;;;;;;25.10;11.13;;;;;;;-7.41;87.34;97792.03;3442739;28;20054;-54
2021/01/30 02:43:39;;;;;;;31.92;12.63;;;;;;;-7.43;87.43;97783.56;3440642;28;20058;-50
2021/01/30 02:45:25;;;;;;;26.27;11.27;;;;;;;-7.43;87.53;97792.78;3442765;28;20503;-54
2021/01/30 02:47:10;;;;;;;25.30;11.75;;;;;;;-7.46;87.30;97790.09;3440033;28;20065;-53
2021/01/30 02:48:57;;;;;;;28.02;12.82;;;;;;;-7.51;87.01;97792.34;3440520;28;20042;-53
2021/01/30 02:50:45;;;;;;;30.25;12.70;;;;;;;-7.54;87.19;97786.28;3442119;28;20054;-52
2021/01/30 02:52:28;;;;;;;33.30;13.85;;;;;;;-7.58;87.34;97787.78;3440339;28;20050;-51
2021/01/30 02:54:14;;;;;;;30.17;12.45;;;;;;;-7.62;87.46;97783.38;3442743;28;20053;-53
2021/01/30 02:55:59;;;;;;;34.20;13.63;;;;;;;-7.65;87.57;97785.72;3439407;28;20050;-52
2021/01/30 02:57:44;;;;;;;30.73;13.82;;;;;;;-7.67;87.59;97784.78;3441684;28;20158;-55
2021/01/30 02:59:29;;;;;;;32.75;12.85;;;;;;;-7.69;87.91;97789.72;3441953;28;20057;-54
2021/01/30 03:01:12;;;;;;;31.40;13.30;;;;;;;-7.72;87.89;97783.66;3440202;28;20124;-53
2021/01/30 03:02:54;;;;;;;26.10;11.68;;;;;;;-7.75;87.81;97784.38;3442875;28;20054;-53
2021/01/30 03:04:37;;;;;;;29.90;11.95;;;;;;;-7.75;87.92;97783.47;3440257;28;20166;-52
2021/01/30 03:06:26;;;;;;;30.98;12.93;;;;;;;-7.76;88.15;97780.09;3441988;28;20058;-54
2021/01/30 03:08:21;;;;;;;28.52;12.77;;;;;;;-7.75;88.21;97781.84;3439341;28;20105;-51
2021/01/30 03:10:12;;;;;;;27.70;12.95;;;;;;;-7.74;88.01;97787.75;3439596;28;20046;-52
2021/01/30 03:11:59;;;;;;;26.85;11.50;;;;;;;-7.76;87.71;97780.09;3429676;28;20051;-53
2021/01/30 03:13:51;;;;;;;24.88;12.40;;;;;;;-7.75;87.92;97791.91;3440124;28;20054;-52
2021/01/30 03:15:37;;;;;;;31.63;13.32;;;;;;;-7.77;87.87;97781.75;3441483;28;20695;-54
2021/01/30 03:17:20;;;;;;;27.67;13.02;;;;;;;-7.74;88.00;97780.19;3440332;28;20054;-53
2021/01/30 03:19:08;;;;;;;27.40;13.52;;;;;;;-7.73;87.90;97776.88;3440234;28;20054;-51
2021/01/30 03:20:51;;;;;;;30.38;13.77;;;;;;;-7.73;87.86;97771.84;3442612;28;20053;-52
2021/01/30 03:22:36;;;;;;;29.38;13.65;;;;;;;-7.74;87.53;97780.19;3440025;28;20057;-52
2021/01/30 03:24:19;;;;;;;31.70;13.93;;;;;;;-7.77;87.28;97768.28;3441787;28;20046;-52
2021/01/30 03:26:21;;;;;;;36.50;14.27;;;;;;;-7.78;87.27;97767.44;3441206;28;20089;-51
2021/01/30 03:28:03;;;;;;;34.47;13.63;;;;;;;-7.78;87.25;97767.44;3437761;28;20078;-53
2021/01/30 03:29:45;;;;;;;29.05;12.57;;;;;;;-7.79;87.26;97763.22;3429255;28;20062;-51
2021/01/30 03:31:26;;;;;;;33.88;13.93;;;;;;;-7.78;87.20;97771.63;3436550;28;20123;-53
2021/01/30 03:33:09;;;;;;;30.08;13.00;;;;;;;-7.80;86.89;97770.66;3441760;28;20054;-53
2021/01/30 03:34:52;;;;;;;29.80;13.88;;;;;;;-7.83;86.93;97763.81;3439918;28;20527;-51
2021/01/30 03:36:34;;;;;;;30.20;13.32;;;;;;;-7.84;86.54;97767.13;3440111;28;20096;-52
2021/01/30 03:38:16;;;;;;;29.83;13.80;;;;;;;-7.86;86.52;97753.56;3442039;28;20050;-51
2021/01/30 03:39:58;;;;;;;26.00;13.25;;;;;;;-7.90;86.24;97759.22;3440086;28;20092;-52
2021/01/30 03:41:41;;;;;;;32.67;14.82;;;;;;;-7.92;86.11;97759.94;3442355;28;20061;-51
2021/01/30 03:43:22;;;;;;;33.20;13.98;;;;;;;-7.99;85.95;97761.25;3440041;28;20050;-50
2021/01/30 03:45:06;;;;;;;32.42;15.32;;;;;;;-8.01;86.17;97762.81;3441338;28;20046;-55
2021/01/30 03:46:48;;;;;;;31.55;14.23;;;;;;;-8.06;86.19;97757.50;3439810;28;20058;-51
2021/01/30 03:48:30;;;;;;;33.97;13.35;;;;;;;-8.09;86.19;97767.41;3439791;28;20685;-54
2021/01/30 03:50:13;;;;;;;26.58;12.93;;;;;;;-8.10;86.32;97773.22;3442360;28;20435;-54
2021/01/30 03:51:54;;;;;;;32.28;14.90;;;;;;;-8.11;86.42;97770.63;3439338;28;20097;-53
2021/01/30 03:53:37;;;;;;;30.65;13.73;;;;;;;-8.12;86.31;97766.38;3442103;28;20566;-54
2021/01/30 03:55:21;;;;;;;30.80;13.43;;;;;;;-8.13;86.40;97769.69;3439018;28;20046;-53
2021/01/30 03:57:03;;;;;;;30.83;14.35;;;;;;;-8.15;86.40;97767.94;3440860;28;20480;-50
2021/01/30 03:58:45;;;;;;;29.85;13.55;;;;;;;-8.16;86.61;97778.81;3441040;28;20549;-53
2021/01/30 04:00:27;;;;;;;31.73;14.02;;;;;;;-8.16;86.59;97775.41;3438579;28;20051;-52
2021/01/30 04:02:09;;;;;;;33.40;13.40;;;;;;;-8.16;86.48;97777.91;3441929;28;20082;-53
2021/01/30 04:03:51;;;;;;;30.83;13.45;;;;;;;-8.16;86.66;97770.38;3440027;28;20053;-54
2021/01/30 04:05:32;;;;;;;31.25;13.23;;;;;;;-8.17;86.53;97773.69;3441414;28;20563;-52
2021/01/30 04:07:15;;;;;;;36.22;13.85;;;;;;;-8.18;86.44;97767.75;3439729;28;20078;-52
2021/01/30 04:08:56;;;;;;;34.80;15.63;;;;;;;-8.18;86.50;97777.81;3441130;28;20069;-51
2021/01/30 04:10:39;;;;;;;31.98;15.27;;;;;;;-8.18;86.51;97775.31;3440626;28;20080;-48
2021/01/30 04:12:22;;;;;;;34.10;14.52;;;;;;;-8.18;86.38;97770.28;3439685;28;20085;-48
2021/01/30 04:14:03;;;;;;;41.88;15.13;;;;;;;-8.18;86.30;97770.28;3441980;28;20058;-48
2021/01/30 04:15:46;;;;;;;35.05;15.38;;;;;;;-8.19;86.31;97761.00;3439575;28;20054;-49
2021/01/30 04:17:28;;;;;;;34.17;16.33;;;;;;;-8.19;86.18;97760.16;3441689;28;20141;-52
2021/01/30 04:19:09;;;;;;;33.85;15.05;;;;;;;-8.22;86.25;97765.88;3440200;28;20050;-51
2021/01/30 04:20:51;;;;;;;37.03;16.13;;;;;;;-8.23;86.21;97759.13;3440087;28;20074;-53
2021/01/30 04:22:33;;;;;;;37.10;16.67;;;;;;;-8.24;86.35;97762.41;3441556;28;20146;-48
2021/01/30 04:24:14;;;;;;;37.30;16.92;;;;;;;-8.26;86.47;97768.16;3439547;28;20197;-48
2021/01/30 04:25:57;;;;;;;42.25;16.05;;;;;;;-8.27;86.61;97772.28;3441977;28;20055;-49
2021/01/30 04:27:38;;;;;;;45.42;19.90;;;;;;;-8.29;86.13;97776.38;3439270;28;20150;-48
2021/01/30 04:29:20;;;;;;;43.50;18.73;;;;;;;-8.34;86.16;97771.06;3441467;28;20061;-48
2021/01/30 04:31:01;;;;;;;44.53;18.90;;;;;;;-8.36;86.47;97775.16;3438702;28;20047;-48
2021/01/30 04:32:43;;;;;;;42.13;17.48;;;;;;;-8.37;86.54;97777.56;3441018;28;20137;-49
2021/01/30 04:34:25;;;;;;;46.45;17.40;;;;;;;-8.38;86.69;97789.28;3440356;28;20086;-48
2021/01/30 04:36:07;;;;;;;45.65;18.60;;;;;;;-8.40;86.42;97787.47;3439353;28;20511;-47
2021/01/30 04:37:49;;;;;;;51.75;20.17;;;;;;;-8.47;86.34;97783.75;3441584;28;20050;-48
2021/01/30 04:39:30;;;;;;;68.45;25.75;;;;;;;-8.51;86.67;97779.34;3439162;28;20575;-51
2021/01/30 04:41:24;;;;;;;70.22;27.00;;;;;;;-8.52;86.95;97787.63;3441086;28;20140;-51
2021/01/30 04:43:14;;;;;;;70.38;26.15;;;;;;;-8.53;87.13;97778.34;3439580;28;20053;-49
2021/01/30 04:45:02;;;;;;;63.15;23.63;;;;;;;-8.52;87.60;97781.75;3439354;28;20488;-48
2021/01/30 04:46:54;;;;;;;54.75;23.30;;;;;;;-8.51;87.87;97789.38;3441382;28;20463;-47
2021/01/30 04:48:50;;;;;;;64.50;24.85;;;;;;;-8.48;87.99;97783.66;3439434;28;20053;-47
2021/01/30 04:50:41;;;;;;;58.40;20.48;;;;;;;-8.47;88.11;97781.22;3439625;28;20088;-47
2021/01/30 04:52:39;;;;;;;44.03;19.90;;;;;;;-8.45;88.36;97788.88;3440856;28;20050;-47
2021/01/30 04:54:45;;;;;;;57.20;21.73;;;;;;;-8.42;88.68;97772.31;3439163;28;20050;-47
2021/01/30 04:56:39;;;;;;;61.83;25.45;;;;;;;-8.39;88.66;97781.66;3440309;28;20096;-49
2021/01/30 04:58:29;;;;;;;61.63;22.52;;;;;;;-8.37;88.71;97767.50;3440711;28;20511;-49
2021/01/30 05:00:32;;;;;;;55.42;22.73;;;;;;;-8.34;88.58;97775.22;3439091;28;20085;-48
2021/01/30 05:02:29;;;;;;;54.97;23.00;;;;;;;-8.31;88.75;97772.91;3440687;28;20092;-54
2021/01/30 05:04:17;;;;;;;47.33;19.02;;;;;;;-8.27;88.83;97766.41;3440204;28;20507;-54
2021/01/30 05:06:06;;;;;;;52.13;20.55;;;;;;;-8.25;88.72;97773.22;3439152;28;20117;-52
2021/01/30 05:07:53;;;;;;;51.70;19.83;;;;;;;-8.20;88.52;97768.47;3441026;28;20054;-54
2021/01/30 05:09:45;;;;;;;49.80;20.05;;;;;;;-8.19;88.24;97762.66;3439134;28;20073;-51
2021/01/30 05:11:28;;;;;;;48.13;19.33;;;;;;;-8.19;88.00;97771.06;3440347;28;20050;-54
2021/01/30 05:13:21;;;;;;;43.53;19.15;;;;;;;-8.19;88.06;97776.09;3445331;28;20074;-54
2021/01/30 05:15:12;;;;;;;45.88;19.30;;;;;;;-8.18;87.93;97779.47;3443553;28;20050;-53
2021/01/30 05:17:02;;;;;;;44.83;18.95;;;;;;;-8.17;87.88;97768.66;3445143;28;20058;-54
2021/01/30 05:18:50;;;;;;;44.17;19.20;;;;;;;-8.16;87.76;97777.91;3444005;28;20062;-52
2021/01/30 05:20:35;;;;;;;50.90;19.73;;;;;;;-8.16;87.68;97780.44;3443520;28;20078;-52
2021/01/30 05:22:18;;;;;;;53.42;20.85;;;;;;;-8.17;87.54;97779.56;3445610;28;20508;-53
2021/01/30 05:24:00;;;;;;;53.80;19.58;;;;;;;-8.16;87.73;97777.91;3443528;28;20465;-52
2021/01/30 05:25:43;;;;;;;46.13;19.45;;;;;;;-8.15;87.69;97787.19;3445334;28;20050;-53
2021/01/30 05:27:43;;;;;;;51.33;20.13;;;;;;;-8.16;87.64;97788.84;3443650;28;20435;-53
2021/01/30 05:29:30;;;;;;;43.47;18.20;;;;;;;-8.14;87.62;97791.44;3443429;28;20054;-54
2021/01/30 05:31:27;;;;;;;48.00;18.58;;;;;;;-8.15;87.57;97789.72;3444309;28;20511;-52
2021/01/30 05:33:23;;;;;;;44.15;17.25;;;;;;;-8.14;87.37;97793.94;3443553;28;20046;-54
2021/01/30 05:35:10;;;;;;;43.92;18.77;;;;;;;-8.13;87.33;97784.78;3443346;28;20503;-53
2021/01/30 05:36:58;;;;;;;48.65;18.48;;;;;;;-8.13;87.22;97793.19;3444687;28;20096;-51
2021/01/30 05:38:52;;;;;;;56.70;19.13;;;;;;;-8.13;87.22;97780.59;3438954;28;20120;-51
2021/01/30 05:40:41;;;;;;;46.75;18.65;;;;;;;-8.13;87.19;97785.63;3445408;28;20047;-52
2021/01/30 05:42:32;;;;;;;53.88;18.85;;;;;;;-8.12;87.14;97783.97;3443793;28;20443;-51
2021/01/30 05:44:19;;;;;;;53.72;19.63;;;;;;;-8.11;87.24;97785.72;3442833;28;20518;-51
2021/01/30 05:46:02;;;;;;;58.53;19.45;;;;;;;-8.10;87.17;97788.31;3445663;28;20062;-51
2021/01/30 05:47:49;;;;;;;43.03;18.20;;;;;;;-8.09;86.75;97794.22;3443370;28;20108;-50
2021/01/30 05:49:37;;;;;;;43.28;18.50;;;;;;;-8.12;86.69;97794.94;3444902;28;20054;-53
2021/01/30 05:51:27;;;;;;;45.22;19.55;;;;;;;-8.15;86.24;97807.31;3443089;28;20057;-54
2021/01/30 05:53:11;;;;;;;46.03;20.17;;;;;;;-8.21;86.41;97810.38;3443176;28;20046;-51
2021/01/30 05:54:53;;;;;;;48.13;19.48;;;;;;;-8.25;86.86;97810.94;3445711;28;20495;-47
2021/01/30 05:56:39;;;;;;;47.70;20.08;;;;;;;-8.29;86.99;97808.19;3442857;28;20058;-47
2021/01/30 05:58:23;;;;;;;46.50;20.65;;;;;;;-8.28;87.51;97807.41;3445014;28;20053;-48
2021/01/30 06:00:06;;;;;;;49.17;21.73;;;;;;;-8.24;88.04;97810.19;3442931;28;20566;-48
2021/01/30 06:01:48;;;;;;;48.90;22.00;;;;;;;-8.21;88.26;97810.38;3444250;28;20503;-49
2021/01/30 06:03:30;;;;;;;55.08;23.58;;;;;;;-8.17;88.30;97813.91;3444261;28;20051;-48
2021/01/30 06:05:18;;;;;;;52.60;22.83;;;;;;;-8.15;88.46;97810.69;3443153;28;20064;-47
2021/01/30 06:07:00;;;;;;;51.72;23.52;;;;;;;-8.10;88.45;97816.00;3445693;28;20124;-47
2021/01/30 06:08:54;;;;;;;53.80;22.42;;;;;;;-8.07;88.67;97812.78;3437130;28;20047;-47
2021/01/30 06:10:37;;;;;;;53.38;23.35;;;;;;;-8.03;88.54;97815.56;3435015;28;20522;-47
2021/01/30 06:12:25;;;;;;;54.20;22.73;;;;;;;-7.99;88.66;97814.06;3443261;28;20140;-51
2021/01/30 06:14:08;;;;;;;55.72;24.20;;;;;;;-7.94;88.75;97816.84;3443129;28;20050;-48
2021/01/30 06:15:54;;;;;;;55.95;24.27;;;;;;;-7.91;88.66;97819.53;3445251;28;20053;-48
2021/01/30 06:17:36;;;;;;;52.53;23.58;;;;;;;-7.88;88.81;97818.03;3443210;28;20116;-48
2021/01/30 06:19:20;;;;;;;47.85;22.02;;;;;;;-7.84;88.82;97819.06;3444531;28;20076;-48
2021/01/30 06:21:09;;;;;;;51.00;22.33;;;;;;;-7.78;88.95;97814.41;3444055;28;20046;-47
2021/01/30 06:23:08;;;;;;;53.05;22.30;;;;;;;-7.72;88.89;97817.22;3441067;28;20050;-47
2021/01/30 06:24:50;;;;;;;47.08;21.70;;;;;;;-7.68;89.00;97824.19;3443135;28;20050;-47
2021/01/30 06:26:39;;;;;;;52.35;21.42;;;;;;;-7.62;89.00;97814.44;3439417;28;20086;-47
2021/01/30 06:28:24;;;;;;;55.33;22.25;;;;;;;-7.56;89.09;97816.41;3442133;28;20475;-52
2021/01/30 06:30:09;;;;;;;47.47;20.52;;;;;;;-7.49;89.13;97815.09;3431300;28;20063;-52
2021/01/30 06:31:52;;;;;;;48.20;21.70;;;;;;;-7.43;89.19;97812.94;3435389;28;20050;-53
2021/01/30 06:33:42;;;;;;;43.70;19.80;;;;;;;-7.35;89.40;97809.13;3442963;28;20137;-52
2021/01/30 06:35:31;;;;;;;48.33;21.00;;;;;;;-7.27;89.31;97802.84;3439654;28;20050;-53
2021/01/30 06:37:28;;;;;;;43.10;19.35;;;;;;;-7.20;89.33;97804.88;3441938;28;20057;-53
2021/01/30 06:39:12;;;;;;;43.00;18.25;;;;;;;-7.10;89.39;97800.31;3443128;28;20061;-49
2021/01/30 06:40:56;;;;;;;40.03;18.42;;;;;;;-7.03;89.60;97798.22;3440247;28;20160;-47
2021/01/30 06:42:38;;;;;;;46.10;19.60;;;;;;;-6.91;89.61;97802.16;3442890;28;20558;-47
2021/01/30 06:44:23;;;;;;;48.05;20.38;;;;;;;-6.84;89.46;97805.06;3439406;28;20055;-54
2021/01/30 06:46:08;;;;;;;55.83;21.38;;;;;;;-6.73;89.38;97798.06;3442059;28;20104;-53
2021/01/30 06:47:51;;;;;;;50.00;21.00;;;;;;;-6.62;89.47;97789.38;3441038;28;20065;-50
2021/01/30 06:49:36;;;;;;;48.92;22.10;;;;;;;-6.50;89.36;97783.19;3440441;28;20496;-53
2021/01/30 06:51:36;;;;;;;59.05;22.70;;;;;;;-6.38;89.31;97790.50;3442787;28;20050;-51
2021/01/30 06:53:23;;;;;;;50.25;20.90;;;;;;;-6.28;89.07;97785.13;3440868;28;20106;-54
2021/01/30 06:55:11;;;;;;;49.30;20.13;;;;;;;-6.18;88.89;97782.25;3441612;28;20042;-52
2021/01/30 06:57:01;;;;;;;46.40;21.98;;;;;;;-6.11;88.86;97776.72;3442165;28;20046;-52
2021/01/30 06:58:44;;;;;;;54.30;21.40;;;;;;;-6.01;88.50;97777.16;3440350;28;20050;-54
2021/01/30 07:00:30;;;;;;;49.15;21.13;;;;;;;-5.94;88.36;97776.66;3442741;28;20060;-54
2021/01/30 07:02:19;;;;;;;49.10;22.02;;;;;;;-5.87;88.15;97779.50;3432710;28;20053;-54
2021/01/30 07:04:08;;;;;;;50.17;21.95;;;;;;;-5.79;87.73;97774.84;3432626;28;20053;-54
2021/01/30 07:06:08;;;;;;;50.70;21.17;;;;;;;-5.70;87.35;97774.41;3441431;28;20061;-53
2021/01/30 07:08:29;;;;;;;53.45;22.40;;;;;;;-5.62;87.48;97777.28;3440213;28;20092;-54
2021/01/30 07:10:25;;;;;;;49.45;20.23;;;;;;;-5.54;87.35;97778.50;3439896;28;20573;-54
2021/01/30 07:12:14;;;;;;;51.72;21.02;;;;;;;-5.49;87.26;97767.81;3440961;28;20064;-54
2021/01/30 07:14:03;;;;;;;44.63;20.65;;;;;;;-5.43;87.11;97764.69;3440392;28;20112;-51
2021/01/30 07:15:57;;;;;;;48.72;21.23;;;;;;;-5.37;86.85;97764.09;3441593;28;20562;-54
2021/01/30 07:18:11;;;;;;;44.88;21.17;;;;;;;-5.30;86.86;97769.50;3441776;28;20100;-53
2021/01/30 07:20:03;;;;;;;44.88;21.27;;;;;;;-5.22;86.86;97767.31;3434154;28;20050;-54
2021/01/30 07:21:50;;;;;;;52.38;21.60;;;;;;;-5.12;86.67;97763.53;3441433;28;20042;-52
2021/01/30 07:23:41;;;;;;;48.83;20.83;;;;;;;-5.06;86.03;97768.00;3441168;28;20105;-54
2021/01/30 07:25:29;;;;;;;45.28;21.02;;;;;;;-5.01;85.98;97772.44;3435847;28;20089;-54
2021/01/30 07:27:15;;;;;;;48.60;22.35;;;;;;;-4.97;85.95;97776.84;3441866;28;20077;-52
2021/01/30 07:29:00;;;;;;;49.85;19.25;;;;;;;-4.91;85.82;97768.66;3439757;28;20053;-47
2021/01/30 07:30:48;;;;;;;38.03;17.33;;;;;;;-4.86;85.91;97773.88;3436241;28;20050;-49
2021/01/30 07:32:35;;;;;;;39.80;16.40;;;;;;;-4.81;85.85;97767.34;3440766;28;20054;-48
2021/01/30 07:34:22;;;;;;;38.25;16.38;;;;;;;-4.76;85.73;97771.81;3437204;28;20052;-48
2021/01/30 07:36:09;;;;;;;34.72;15.98;;;;;;;-4.73;85.63;97769.41;3436930;28;20054;-50
2021/01/30 07:37:57;;;;;;;34.83;16.65;;;;;;;-4.66;85.51;97768.03;3440512;28;20070;-49
2021/01/30 07:39:45;;;;;;;33.55;16.40;;;;;;;-4.64;85.70;97766.41;3435856;28;20074;-48
2021/01/30 07:41:41;;;;;;;35.15;17.90;;;;;;;-4.58;85.85;97773.38;3439961;28;20086;-51
2021/01/30 07:43:25;;;;;;;35.85;17.48;;;;;;;-4.55;85.45;97768.47;3438519;28;20057;-48
2021/01/30 07:45:13;;;;;;;40.33;20.25;;;;;;;-4.52;85.39;97778.72;3438745;28;20500;-48
2021/01/30 07:47:13;;;;;;;48.00;20.02;;;;;;;-4.49;85.53;97778.81;3439657;28;20334;-48
2021/01/30 07:48:58;;;;;;;41.05;18.02;;;;;;;-4.48;85.77;97777.19;3437665;28;20061;-51
2021/01/30 07:50:43;;;;;;;33.50;17.42;;;;;;;-4.45;85.83;97777.28;3440864;28;20046;-48
2021/01/30 07:52:30;;;;;;;41.55;18.42;;;;;;;-4.41;86.13;97784.22;3438154;28;20522;-54
2021/01/30 07:54:13;;;;;;;38.47;18.67;;;;;;;-4.39;86.13;97786.00;3439274;28;20081;-54
2021/01/30 07:56:14;;;;;;;50.92;22.23;;;;;;;-4.43;85.24;97784.16;3440758;28;20050;-52
2021/01/30 07:58:18;;;;;;;51.45;22.50;;;;;;;-4.51;85.13;97788.03;3437609;28;20415;-48
2021/01/30 08:00:08;;;;;;;46.47;19.53;;;;;;;-4.51;85.55;97793.09;3437971;28;20500;-47
2021/01/30 08:02:22;;;;;;;49.38;21.10;;;;;;;-4.50;85.87;97792.28;3439844;28;20054;-49
2021/01/30 08:04:27;;;;;;;41.97;19.02;;;;;;;-4.48;85.38;97787.31;3436159;28;20054;-48
2021/01/30 08:06:26;;;;;;;36.70;17.75;;;;;;;-4.50;84.42;97796.50;3438008;28;20065;-48
2021/01/30 08:08:25;;;;;;;38.65;17.08;;;;;;;-4.49;84.85;97796.53;3439358;28;20085;-48
2021/01/30 08:10:13;;;;;;;36.40;17.25;;;;;;;-4.43;85.39;97789.22;3437188;28;20109;-48
2021/01/30 08:12:01;;;;;;;37.90;17.20;;;;;;;-4.38;85.87;97782.69;3438572;28;20054;-48